Time;durP1;ratioP1;P1;durP2;ratioP2;P2;SDS_P1;SDS_P2;PMS_P1;PMS_P2;Temp;Humidity;BMP_temperature;BMP_pressure;BME280_temperature;BME280_humidity;BME280_pressure;Samples;Min_cycle;Max_cycle;Signal;HPM_P1;HPM_P2
2022/01/25 00:24:25;;;;;;;59.67;29.33;;;3.00;99.90;;;;;;6245501;22;20027;-81
2022/01/25 00:27:12;;;;;;;59.90;29.33;;;3.00;99.90;;;;;;6220648;22;20051;-81
2022/01/25 00:32:10;;;;;;;63.88;29.85;;;3.20;99.90;;;;;;6245773;22;20099;-81
2022/01/25 00:34:35;;;;;;;66.45;31.65;;;3.00;99.90;;;;;;6220319;22;20055;-81
2022/01/25 00:37:01;;;;;;;60.55;30.42;;;3.00;99.90;;;;;;6195521;22;20019;-81
2022/01/25 00:39:27;;;;;;;63.22;30.75;;;3.00;99.90;;;;;;6219995;22;20663;-80
2022/01/25 00:41:52;;;;;;;58.92;30.60;;;3.10;99.90;;;;;;6220598;22;20046;-81
2022/01/25 00:44:18;;;;;;;71.05;33.38;;;3.00;99.90;;;;;;6244648;22;20160;-81
2022/01/25 00:46:44;;;;;;;61.67;30.67;;;3.00;99.90;;;;;;6194993;22;20012;-81
2022/01/25 00:49:14;;;;;;;63.50;30.70;;;3.00;99.90;;;;;;6219625;22;20126;-81
2022/01/25 00:54:26;;;;;;;55.58;29.13;;;3.00;99.90;;;;;;6245326;22;20463;-81
2022/01/25 00:56:53;;;;;;;61.00;29.67;;;3.00;99.90;;;;;;6245795;22;20020;-80
2022/01/25 00:59:22;;;;;;;57.72;30.00;;;3.00;99.90;;;;;;6219892;22;20111;-81
2022/01/25 01:01:51;;;;;;;59.90;29.65;;;3.10;99.90;;;;;;6245892;22;20022;-81
2022/01/25 01:04:18;;;;;;;61.10;29.73;;;2.90;99.90;;;;;;6244945;22;20197;-81
2022/01/25 01:06:45;;;;;;;63.42;31.55;;;2.90;99.90;;;;;;6245769;22;20473;-81
2022/01/25 01:09:12;;;;;;;63.38;32.00;;;2.90;99.90;;;;;;6195117;22;20016;-81
2022/01/25 01:11:56;;;;;;;65.53;30.42;;;3.00;99.90;;;;;;6220145;22;20011;-81
2022/01/25 01:41:19;;;;;;;60.38;30.13;;;2.90;99.90;;;;;;6223687;22;20107;-80
2022/01/25 01:43:46;;;;;;;67.30;31.25;;;3.00;99.90;;;;;;6245119;22;20015;-80
2022/01/25 01:49:01;;;;;;;61.53;30.45;;;2.90;99.90;;;;;;6244705;22;20015;-80
2022/01/25 01:51:36;;;;;;;65.63;30.52;;;3.20;99.90;;;;;;6198639;22;20011;-80
2022/01/25 01:54:04;;;;;;;61.53;29.10;;;2.90;99.90;;;;;;6245045;22;20073;-80
2022/01/25 01:56:31;;;;;;;70.70;30.45;;;3.10;99.90;;;;;;6244698;22;20028;-80
2022/01/25 01:59:00;;;;;;;64.95;32.25;;;3.20;99.90;;;;;;6219588;22;20019;-80
2022/01/25 02:01:28;;;;;;;68.93;31.35;;;2.90;99.90;;;;;;6219455;22;20011;-80
2022/01/25 02:03:54;;;;;;;66.50;31.38;;;2.90;99.90;;;;;;6219124;22;20423;-80
2022/01/25 02:06:20;;;;;;;70.25;32.58;;;3.40;99.90;;;;;;6243859;22;20051;-80
2022/01/25 02:08:46;;;;;;;65.22;30.65;;;2.90;99.90;;;;;;6194748;22;20023;-80
2022/01/25 02:11:12;;;;;;;64.65;32.15;;;3.00;99.90;;;;;;6218754;22;20047;-80
2022/01/25 02:13:41;;;;;;;68.53;32.20;;;2.90;99.90;;;;;;6244573;22;20473;-80
2022/01/25 02:16:11;;;;;;;69.45;32.22;;;3.10;99.90;;;;;;6193994;22;20020;-80
2022/01/25 02:24:05;;;;;;;66.80;31.25;;;2.90;99.90;;;;;;6222829;22;20020;-80
2022/01/25 02:26:31;;;;;;;72.68;33.08;;;2.90;99.90;;;;;;6244030;22;20024;-80
2022/01/25 02:28:57;;;;;;;68.95;32.47;;;2.90;99.90;;;;;;6194624;22;20016;-80
2022/01/25 02:31:23;;;;;;;67.32;31.92;;;2.80;99.90;;;;;;6169379;22;20447;-80
2022/01/25 02:33:49;;;;;;;73.22;33.75;;;2.80;99.90;;;;;;6244651;22;20023;-80
2022/01/25 02:36:27;;;;;;;66.20;30.65;;;2.80;99.90;;;;;;6243976;22;20633;-81
2022/01/25 02:38:54;;;;;;;63.78;31.35;;;2.80;99.90;;;;;;6244581;22;20023;-80
2022/01/25 02:41:20;;;;;;;69.25;32.28;;;2.90;99.90;;;;;;6219477;22;20038;-81
2022/01/25 02:43:47;;;;;;;66.00;31.35;;;2.90;99.90;;;;;;6218890;22;20054;-80
2022/01/25 02:48:53;;;;;;;65.35;32.03;;;2.90;99.90;;;;;;6244967;23;20035;-81
2022/01/25 02:51:22;;;;;;;64.80;30.95;;;2.90;99.90;;;;;;6243442;23;20026;-80
2022/01/25 02:53:48;;;;;;;67.43;31.17;;;2.90;99.90;;;;;;6224827;23;20012;-80
2022/01/25 02:56:15;;;;;;;64.47;30.02;;;2.80;99.90;;;;;;6241293;23;20038;-81
2022/01/25 02:58:41;;;;;;;68.80;30.02;;;2.90;99.90;;;;;;6239692;23;20054;-80
2022/01/25 03:01:07;;;;;;;59.75;30.05;;;2.90;99.90;;;;;;6214254;23;20016;-80
2022/01/25 03:03:33;;;;;;;69.45;31.05;;;2.90;99.90;;;;;;6189300;23;20039;-80
2022/01/25 03:05:59;;;;;;;68.22;30.60;;;2.90;99.90;;;;;;6164272;23;20705;-81
2022/01/25 03:08:24;;;;;;;65.43;32.50;;;2.90;99.90;;;;;;6189600;23;20020;-81
2022/01/25 03:10:50;;;;;;;62.35;30.45;;;3.10;99.90;;;;;;6213896;23;20027;-80
2022/01/25 03:13:21;;;;;;;69.47;31.52;;;2.90;99.90;;;;;;6213942;23;20016;-80
2022/01/25 03:18:25;;;;;;;71.38;31.50;;;2.80;99.90;;;;;;6239157;23;20107;-81
2022/01/25 03:20:59;;;;;;;64.05;30.10;;;2.80;99.90;;;;;;6238901;23;20024;-81
2022/01/25 03:23:25;;;;;;;63.53;30.10;;;2.90;99.90;;;;;;6190988;23;20020;-81
2022/01/25 03:25:52;;;;;;;69.70;32.58;;;2.80;99.90;;;;;;6213416;23;20367;-81
2022/01/25 03:28:19;;;;;;;63.80;30.67;;;2.80;99.90;;;;;;6164292;23;20412;-81
2022/01/25 03:30:46;;;;;;;67.32;31.05;;;2.80;99.90;;;;;;6164574;23;20316;-81
2022/01/25 03:33:13;;;;;;;68.82;30.08;;;2.80;99.90;;;;;;6238930;23;20017;-81
2022/01/25 03:35:39;;;;;;;66.22;30.30;;;2.80;99.90;;;;;;6239254;23;20020;-81
2022/01/25 03:38:05;;;;;;;66.60;32.42;;;3.00;99.90;;;;;;6188319;23;20055;-80
2022/01/25 03:40:31;;;;;;;71.85;31.80;;;3.10;99.90;;;;;;6213820;23;20055;-80
2022/01/25 03:42:59;;;;;;;63.38;29.08;;;2.80;99.90;;;;;;6238970;23;20020;-80
2022/01/25 03:45:32;;;;;;;66.38;31.58;;;2.80;99.90;;;;;;6213153;23;20016;-80
2022/01/25 03:49:47;;;;;;;;;;;2.80;99.90;;;;;;6214490;23;20316;-80
2022/01/25 03:50:46;;;;;;;66.70;31.25;;;3.10;99.90;;;;;;6241333;23;20275;-80
2022/01/25 03:53:14;;;;;;;65.80;31.27;;;2.80;99.90;;;;;;6240422;23;20016;-80
2022/01/25 03:55:40;;;;;;;69.82;29.77;;;2.80;99.90;;;;;;6216297;23;20099;-80
2022/01/25 03:58:07;;;;;;;71.47;30.70;;;2.80;99.90;;;;;;6242857;23;20052;-80
2022/01/25 04:00:34;;;;;;;68.80;31.30;;;2.80;99.90;;;;;;6242195;23;20020;-80
2022/01/25 04:03:06;;;;;;;61.75;29.55;;;2.80;99.90;;;;;;6241899;23;20099;-80
2022/01/25 04:05:48;;;;;;;66.75;30.48;;;2.80;99.90;;;;;;6218082;23;20053;-80
2022/01/25 04:08:15;;;;;;;;;;;2.80;99.90;;;;;;6220540;23;20024;-80
2022/01/25 04:10:41;;;;;;;64.53;27.65;;;2.80;99.90;;;;;;6247002;23;19915;-80
2022/01/25 04:13:08;;;;;;;72.10;31.50;;;2.80;99.90;;;;;;6244876;23;20027;-80
2022/01/25 04:15:35;;;;;;;66.13;31.13;;;2.80;99.90;;;;;;6218487;23;20497;-80
2022/01/25 04:20:31;;;;;;;63.42;31.95;;;2.80;99.90;;;;;;6219097;23;20016;-80
2022/01/25 04:25:42;;;;;;;68.53;31.52;;;2.90;99.90;;;;;;6222581;23;20374;-80
2022/01/25 04:28:08;;;;;;;74.63;31.65;;;2.80;99.90;;;;;;6218351;23;20039;-80
2022/01/25 04:30:34;;;;;;;67.22;31.13;;;2.80;99.90;;;;;;6241510;23;20451;-80
2022/01/25 04:33:06;;;;;;;66.40;31.80;;;2.80;99.90;;;;;;6240717;23;20087;-81
2022/01/25 04:49:10;;;;;;;66.72;31.35;;;3.10;99.90;;;;;;6240169;23;20024;-81
2022/01/25 04:56:39;;;;;;;69.50;31.02;;;2.80;99.90;;;;;;6240730;23;20028;-81
2022/01/25 04:59:14;;;;;;;63.22;28.95;;;2.80;99.90;;;;;;6240264;23;20039;-81
2022/01/25 05:01:40;;;;;;;69.57;32.28;;;2.80;99.90;;;;;;6216144;23;20027;-80
2022/01/25 05:04:11;;;;;;;72.70;31.25;;;3.10;99.90;;;;;;6214884;23;20379;-81
2022/01/25 05:06:38;;;;;;;65.57;30.75;;;2.80;99.90;;;;;;6191470;23;20019;-80
2022/01/25 05:09:12;;;;;;;64.15;28.40;;;2.70;99.90;;;;;;6190568;23;20091;-81
2022/01/25 05:11:44;;;;;;;72.05;32.38;;;2.80;99.90;;;;;;6215014;23;20047;-81
2022/01/25 05:14:18;;;;;;;70.65;30.70;;;2.70;99.90;;;;;;6215786;23;20470;-81
2022/01/25 05:16:57;;;;;;;65.95;31.00;;;3.20;99.90;;;;;;6240395;23;20070;-81
2022/01/25 05:24:42;;;;;;;68.07;29.88;;;2.80;99.90;;;;;;6219001;23;20023;-80
2022/01/25 05:27:09;;;;;;;72.90;32.03;;;2.70;99.90;;;;;;6215479;23;20020;-80
2022/01/25 05:29:36;;;;;;;66.70;29.40;;;2.90;99.90;;;;;;6214734;23;20012;-80
2022/01/25 05:32:02;;;;;;;70.55;30.92;;;2.70;99.90;;;;;;6190261;23;20008;-80
2022/01/25 05:34:27;;;;;;;67.65;30.90;;;2.70;99.90;;;;;;6189630;23;20111;-79
2022/01/25 05:36:53;;;;;;;67.82;30.00;;;2.80;99.90;;;;;;6240050;23;20086;-80
2022/01/25 05:39:27;;;;;;;66.85;29.50;;;2.80;99.90;;;;;;6214504;23;20459;-80
2022/01/25 05:44:55;;;;;;;71.55;31.88;;;2.70;99.90;;;;;;6197241;23;20391;-80
2022/01/25 05:47:27;;;;;;;65.07;30.65;;;3.10;99.90;;;;;;6170100;23;20020;-80
2022/01/25 05:49:53;;;;;;;65.88;29.27;;;2.70;99.90;;;;;;6190670;23;20339;-80
2022/01/25 05:52:19;;;;;;;76.43;32.47;;;2.70;99.90;;;;;;6240247;23;20023;-80
2022/01/25 05:54:45;;;;;;;74.13;31.20;;;2.70;99.90;;;;;;6189816;23;20012;-80
2022/01/25 05:57:11;;;;;;;67.38;30.33;;;3.30;99.90;;;;;;6239661;23;20174;-81
2022/01/25 05:59:37;;;;;;;63.50;30.27;;;2.70;99.90;;;;;;6189920;23;20024;-81
2022/01/25 06:02:04;;;;;;;75.72;32.08;;;2.70;99.90;;;;;;6215042;23;20020;-80
2022/01/25 06:04:30;;;;;;;68.28;30.73;;;2.70;99.90;;;;;;6189640;23;20086;-81
2022/01/25 06:06:56;;;;;;;69.68;29.25;;;2.70;99.90;;;;;;6189922;23;20020;-81
2022/01/25 06:09:24;;;;;;;73.95;32.38;;;2.90;99.90;;;;;;6214421;23;20027;-80
2022/01/25 06:11:51;;;;;;;72.53;31.83;;;2.70;99.90;;;;;;6214907;23;20012;-80
2022/01/25 06:14:17;;;;;;;67.10;31.58;;;2.80;99.90;;;;;;6239282;23;20012;-81
2022/01/25 06:16:42;;;;;;;66.55;30.50;;;2.70;99.90;;;;;;6239807;23;20016;-80
2022/01/25 06:19:08;;;;;;;73.57;32.45;;;2.70;99.90;;;;;;6214076;23;20324;-81
2022/01/25 06:21:34;;;;;;;69.68;31.65;;;3.00;99.90;;;;;;6240095;23;20016;-81
2022/01/25 06:23:59;;;;;;;74.60;30.25;;;3.10;99.90;;;;;;6189286;23;20090;-80
2022/01/25 06:26:25;;;;;;;76.75;32.85;;;2.70;99.90;;;;;;6214533;23;20110;-81
2022/01/25 06:28:51;;;;;;;67.80;29.45;;;2.90;99.90;;;;;;6190159;23;20023;-81
2022/01/25 06:31:18;;;;;;;71.15;30.58;;;2.70;99.90;;;;;;6190081;23;20027;-83
2022/01/25 06:33:45;;;;;;;71.22;29.90;;;2.70;99.90;;;;;;6215660;23;20016;-82
2022/01/25 06:36:11;;;;;;;69.82;31.55;;;2.70;99.90;;;;;;6214579;23;20016;-81
2022/01/25 06:38:37;;;;;;;73.15;31.17;;;2.70;99.90;;;;;;6214609;23;20378;-81
2022/01/25 06:41:03;;;;;;;67.85;30.90;;;2.70;99.90;;;;;;6243476;23;20058;-82
2022/01/25 06:43:29;;;;;;;72.40;31.67;;;3.00;99.90;;;;;;6218833;23;20023;-80
2022/01/25 06:45:59;;;;;;;72.78;33.08;;;3.00;99.90;;;;;;6239347;23;20012;-81
2022/01/25 06:48:26;;;;;;;71.35;32.30;;;2.70;99.90;;;;;;6211738;22;20015;-82
2022/01/25 06:50:52;;;;;;;73.97;31.35;;;2.70;99.90;;;;;;6209331;22;20450;-81
2022/01/25 06:53:18;;;;;;;70.03;29.40;;;2.70;99.90;;;;;;6211594;22;20741;-81
2022/01/25 06:55:44;;;;;;;65.50;30.33;;;2.70;99.90;;;;;;6237473;22;20107;-82
2022/01/25 06:58:10;;;;;;;78.72;32.30;;;2.70;99.90;;;;;;6236215;22;20024;-81
2022/01/25 07:00:36;;;;;;;75.10;32.13;;;2.70;99.90;;;;;;6184750;22;20023;-81
2022/01/25 07:03:02;;;;;;;69.25;30.05;;;2.70;99.90;;;;;;6209835;22;20022;-81
2022/01/25 07:05:28;;;;;;;69.30;30.98;;;2.80;99.90;;;;;;6185645;22;20016;-81
2022/01/25 07:07:54;;;;;;;69.93;29.85;;;2.80;99.90;;;;;;6234755;22;20090;-81
2022/01/25 07:10:20;;;;;;;71.47;29.70;;;2.80;99.90;;;;;;6237176;22;20358;-84
2022/01/25 07:12:45;;;;;;;75.43;31.48;;;2.80;99.90;;;;;;6238770;22;20049;-84
2022/01/25 07:15:12;;;;;;;73.32;31.42;;;2.70;99.90;;;;;;6212723;22;20007;-83
2022/01/25 07:17:39;;;;;;;70.38;31.67;;;2.70;99.90;;;;;;6189057;22;20632;-83
2022/01/25 07:20:06;;;;;;;69.47;30.40;;;3.60;99.90;;;;;;6237168;22;20030;-80
2022/01/25 07:22:34;;;;;;;76.97;31.05;;;2.80;99.90;;;;;;6186410;22;20043;-81
2022/01/25 07:25:00;;;;;;;68.50;29.67;;;2.90;99.90;;;;;;6212378;22;20486;-81
2022/01/25 07:27:26;;;;;;;71.30;30.30;;;2.80;99.90;;;;;;6211687;22;20031;-81
2022/01/25 07:29:52;;;;;;;73.60;33.20;;;2.80;99.90;;;;;;6238381;22;20049;-82
2022/01/25 07:32:18;;;;;;;63.97;29.75;;;2.80;99.90;;;;;;6188525;22;20390;-82
2022/01/25 07:34:44;;;;;;;69.15;31.40;;;2.70;99.90;;;;;;6194153;22;20446;-81
2022/01/25 07:37:10;;;;;;;70.90;30.52;;;2.80;99.90;;;;;;6212392;22;20473;-82
2022/01/25 07:39:35;;;;;;;70.85;30.38;;;2.80;99.90;;;;;;6187193;22;20110;-82
2022/01/25 07:42:01;;;;;;;74.90;31.75;;;2.80;99.90;;;;;;6237479;22;20077;-79
2022/01/25 07:44:31;;;;;;;66.13;30.05;;;2.80;99.90;;;;;;6186196;22;20688;-80
2022/01/25 07:46:58;;;;;;;78.63;31.92;;;2.80;99.90;;;;;;6162633;22;20020;-81
2022/01/25 07:49:27;;;;;;;70.43;30.95;;;2.80;99.90;;;;;;6235582;22;20081;-80
2022/01/25 07:51:53;;;;;;;70.25;31.05;;;2.80;99.90;;;;;;6210567;22;20020;-80
2022/01/25 07:54:20;;;;;;;70.40;29.27;;;2.80;99.90;;;;;;6209868;22;20020;-80
2022/01/25 07:56:45;;;;;;;67.47;30.88;;;2.80;99.90;;;;;;6184765;22;20102;-81
2022/01/25 07:59:11;;;;;;;68.55;30.25;;;3.00;99.90;;;;;;6187878;22;20043;-81
2022/01/25 08:01:37;;;;;;;67.47;27.77;;;2.80;99.90;;;;;;6238916;22;20050;-81
2022/01/25 08:04:03;;;;;;;74.05;31.75;;;2.80;99.90;;;;;;6239840;22;20174;-80
2022/01/25 08:06:29;;;;;;;74.75;33.13;;;2.80;99.90;;;;;;6236388;22;20114;-80
2022/01/25 08:08:55;;;;;;;75.78;32.10;;;2.80;99.90;;;;;;6236379;22;20015;-81
2022/01/25 08:11:21;;;;;;;73.32;30.73;;;2.80;99.90;;;;;;6185264;22;20053;-83
2022/01/25 08:13:49;;;;;;;71.68;31.27;;;2.80;99.90;;;;;;6162223;22;20486;-83
2022/01/25 08:16:16;;;;;;;71.80;31.75;;;2.80;99.90;;;;;;6185190;22;20047;-80
2022/01/25 08:18:41;;;;;;;76.82;32.95;;;2.80;99.90;;;;;;6213684;22;20078;-81
2022/01/25 08:21:07;;;;;;;76.35;30.70;;;2.80;99.90;;;;;;6197749;22;20023;-81
2022/01/25 08:23:33;;;;;;;71.15;30.95;;;2.90;99.90;;;;;;6219620;22;20447;-82
2022/01/25 08:25:59;;;;;;;71.35;32.22;;;2.80;99.90;;;;;;6213585;22;20103;-81
2022/01/25 08:28:25;;;;;;;70.57;31.17;;;2.80;99.90;;;;;;6188094;22;20016;-82
2022/01/25 08:30:50;;;;;;;74.80;32.40;;;2.80;99.90;;;;;;6213853;22;20024;-80
2022/01/25 08:33:16;;;;;;;72.30;31.60;;;2.90;99.90;;;;;;6192275;22;20020;-80
2022/01/25 08:35:42;;;;;;;70.15;32.00;;;3.10;99.90;;;;;;6218995;22;20066;-81
2022/01/25 08:38:08;;;;;;;74.82;30.88;;;2.90;99.90;;;;;;6219551;22;20019;-84
2022/01/25 08:40:34;;;;;;;65.15;30.27;;;2.80;99.90;;;;;;6219610;22;20016;-82
2022/01/25 08:43:01;;;;;;;72.72;31.77;;;2.90;99.90;;;;;;6190281;22;20462;-81
2022/01/25 08:45:27;;;;;;;66.32;30.35;;;2.90;99.90;;;;;;6215634;22;20030;-83
2022/01/25 08:47:54;;;;;;;74.63;33.75;;;2.90;99.90;;;;;;6240754;22;20012;-82
2022/01/25 08:50:19;;;;;;;70.28;31.48;;;2.90;99.90;;;;;;6211889;22;20031;-80
2022/01/25 08:52:45;;;;;;;69.38;30.90;;;2.90;99.90;;;;;;6188063;22;20122;-81
2022/01/25 08:55:11;;;;;;;70.82;30.17;;;3.40;99.90;;;;;;6190612;22;20446;-79
2022/01/25 08:57:37;;;;;;;66.72;29.70;;;2.90;99.90;;;;;;6191818;22;20316;-79
2022/01/25 09:00:11;;;;;;;74.57;31.42;;;2.90;99.90;;;;;;6243286;22;20094;-79
2022/01/25 09:02:37;;;;;;;65.30;30.05;;;2.90;99.90;;;;;;6241280;22;20038;-78
2022/01/25 09:05:04;;;;;;;70.85;30.70;;;2.90;99.90;;;;;;6216167;22;20451;-80
2022/01/25 09:07:30;;;;;;;69.40;30.13;;;2.90;99.90;;;;;;6191744;22;20557;-79
2022/01/25 09:09:55;;;;;;;74.40;31.00;;;2.90;99.90;;;;;;6166848;22;20023;-80
2022/01/25 09:12:21;;;;;;;65.40;30.30;;;2.90;99.90;;;;;;6217289;22;20090;-80
2022/01/25 09:14:47;;;;;;;75.22;31.65;;;3.00;99.90;;;;;;6215996;22;20046;-80
2022/01/25 09:17:14;;;;;;;68.80;29.73;;;3.00;99.90;;;;;;6220879;22;20031;-82
2022/01/25 09:19:39;;;;;;;68.80;30.48;;;3.00;99.90;;;;;;6218573;22;20019;-83
2022/01/25 09:22:07;;;;;;;69.35;32.33;;;3.00;99.90;;;;;;6225383;22;20024;-80
2022/01/25 09:24:33;;;;;;;71.55;31.80;;;3.00;99.90;;;;;;6249710;22;20047;-80
2022/01/25 09:26:59;;;;;;;74.05;30.38;;;3.00;99.90;;;;;;6248402;22;20058;-80
2022/01/25 09:29:25;;;;;;;72.10;30.58;;;3.10;99.90;;;;;;6252535;22;20016;-78
2022/01/25 09:31:50;;;;;;;71.95;30.90;;;3.40;99.90;;;;;;6240103;22;20016;-81
2022/01/25 09:34:16;;;;;;;73.63;31.13;;;3.00;99.90;;;;;;6193261;22;20514;-80
2022/01/25 09:36:42;;;;;;;73.88;32.58;;;3.00;99.90;;;;;;6189684;22;20023;-80
2022/01/25 09:39:08;;;;;;;69.53;30.77;;;3.20;99.90;;;;;;6211472;22;20332;-80
2022/01/25 09:41:34;;;;;;;75.05;31.48;;;3.00;99.90;;;;;;6211410;22;20435;-80
2022/01/25 09:44:00;;;;;;;66.15;29.52;;;3.00;99.90;;;;;;6211739;22;20082;-81
2022/01/25 09:46:25;;;;;;;67.68;29.38;;;3.10;99.90;;;;;;6186839;22;20053;-79
2022/01/25 09:48:52;;;;;;;64.20;28.50;;;3.10;99.90;;;;;;6236270;22;20028;-80
2022/01/25 09:51:19;;;;;;;69.47;29.50;;;3.10;99.90;;;;;;6236733;22;20016;-80
2022/01/25 09:53:45;;;;;;;72.57;30.75;;;3.10;99.90;;;;;;6194019;22;20012;-80
2022/01/25 09:56:11;;;;;;;72.88;31.60;;;3.10;99.90;;;;;;6242425;22;20102;-80
2022/01/25 09:58:37;;;;;;;69.45;29.73;;;3.10;99.90;;;;;;6217003;22;20055;-81
2022/01/25 10:01:05;;;;;;;67.00;30.58;;;3.10;99.90;;;;;;6193183;22;20020;-82
2022/01/25 10:03:38;;;;;;;72.18;30.95;;;3.10;99.90;;;;;;6196493;22;20475;-83
2022/01/25 10:06:12;;;;;;;62.28;28.33;;;3.10;99.90;;;;;;6223427;22;20026;-82
2022/01/25 10:08:38;;;;;;;68.97;30.95;;;3.10;99.90;;;;;;6240731;22;20016;-79
2022/01/25 10:11:15;;;;;;;74.75;30.67;;;3.20;99.90;;;;;;6217765;22;20018;-80
2022/01/25 10:13:48;;;;;;;67.70;29.65;;;3.20;99.90;;;;;;6242475;22;20011;-80
2022/01/25 10:16:18;;;;;;;66.93;28.70;;;3.20;99.90;;;;;;6216103;22;20026;-79
2022/01/25 10:18:58;;;;;;;67.05;29.63;;;3.20;99.90;;;;;;6243311;22;20011;-80
2022/01/25 10:21:36;;;;;;;72.68;32.03;;;3.20;99.90;;;;;;6243428;22;20041;-80
2022/01/25 10:24:18;;;;;;;66.70;28.20;;;3.20;99.90;;;;;;6243459;22;20093;-80
2022/01/25 10:26:58;;;;;;;68.22;29.90;;;3.30;99.90;;;;;;6243521;22;20632;-80
2022/01/25 10:29:26;;;;;;;69.45;30.40;;;3.50;99.90;;;;;;6246357;22;20023;-81
2022/01/25 10:31:57;;;;;;;65.38;29.65;;;3.30;99.90;;;;;;6221074;22;20022;-81
2022/01/25 10:34:28;;;;;;;71.45;30.40;;;3.30;99.90;;;;;;6219448;22;20485;-80
2022/01/25 10:36:56;;;;;;;69.18;30.17;;;3.30;99.90;;;;;;6244297;22;20031;-80
2022/01/25 10:39:25;;;;;;;73.20;29.65;;;3.40;99.90;;;;;;6221069;22;20477;-80
2022/01/25 10:41:51;;;;;;;67.05;29.85;;;3.40;99.90;;;;;;6220671;22;20450;-80
2022/01/25 10:44:17;;;;;;;70.57;30.90;;;3.40;99.90;;;;;;6248544;22;20015;-80
2022/01/25 10:46:43;;;;;;;74.03;29.95;;;3.40;99.90;;;;;;6224551;22;20047;-79
2022/01/25 10:49:14;;;;;;;66.47;28.17;;;3.40;99.90;;;;;;6196415;22;20043;-80
2022/01/25 10:51:48;;;;;;;70.50;30.83;;;3.40;99.90;;;;;;6216974;22;20042;-81
2022/01/25 10:54:17;;;;;;;64.82;28.45;;;3.60;99.90;;;;;;6215500;22;20015;-81
2022/01/25 10:56:56;;;;;;;79.93;30.70;;;3.40;99.90;;;;;;6240592;22;20028;-81
2022/01/25 10:59:24;;;;;;;72.75;29.95;;;3.40;99.90;;;;;;6241592;22;20019;-82
2022/01/25 11:01:56;;;;;;;69.15;28.38;;;3.50;99.90;;;;;;6215629;22;20039;-81
2022/01/25 11:04:33;;;;;;;71.40;30.90;;;3.50;99.90;;;;;;6216270;22;20019;-80
2022/01/25 11:07:02;;;;;;;69.22;28.20;;;3.50;99.90;;;;;;6217735;22;20026;-80
2022/01/25 11:09:36;;;;;;;71.82;30.08;;;3.50;99.90;;;;;;6213563;22;20022;-79
2022/01/25 11:12:06;;;;;;;65.55;28.45;;;3.50;99.90;;;;;;6215517;22;20429;-80
2022/01/25 11:14:50;;;;;;;73.07;30.73;;;3.50;99.90;;;;;;6241966;22;20016;-79
2022/01/25 11:17:21;;;;;;;70.20;30.73;;;3.50;99.90;;;;;;6220638;22;20117;-79
2022/01/25 11:19:47;;;;;;;72.55;32.28;;;3.20;99.90;;;;;;6214925;22;20065;-80
2022/01/25 11:22:24;;;;;;;70.45;31.75;;;3.50;99.90;;;;;;6191658;22;20102;-80
2022/01/25 11:24:56;;;;;;;72.47;29.58;;;3.70;99.90;;;;;;6241443;22;20011;-80
2022/01/25 11:27:23;;;;;;;65.90;29.60;;;3.50;99.90;;;;;;6241185;22;20015;-80
2022/01/25 11:29:52;;;;;;;80.10;30.63;;;3.50;99.90;;;;;;6245866;22;20081;-80
2022/01/25 11:32:25;;;;;;;66.85;28.92;;;3.50;99.90;;;;;;6221239;22;20015;-79
2022/01/25 11:34:52;;;;;;;76.53;31.35;;;3.50;99.90;;;;;;6217687;22;20081;-80
2022/01/25 11:37:18;;;;;;;74.60;30.75;;;3.50;99.90;;;;;;6243272;22;20023;-81
2022/01/25 11:39:46;;;;;;;73.43;29.58;;;3.60;99.90;;;;;;6242109;22;20076;-81
2022/01/25 11:42:19;;;;;;;75.25;30.23;;;4.20;99.90;;;;;;6217591;22;20019;-81
2022/01/25 11:44:50;;;;;;;72.88;30.02;;;3.60;99.90;;;;;;6215959;22;20324;-80
2022/01/25 11:47:18;;;;;;;76.20;30.77;;;3.80;99.90;;;;;;6215175;22;20121;-80
2022/01/25 11:49:54;;;;;;;80.30;31.65;;;3.60;99.90;;;;;;6240813;22;20077;-80
2022/01/25 11:52:21;;;;;;;71.60;29.55;;;3.60;99.90;;;;;;6240412;22;20047;-80
2022/01/25 11:54:51;;;;;;;74.15;29.27;;;3.60;99.90;;;;;;6240411;22;20014;-80
2022/01/25 11:57:25;;;;;;;70.85;30.88;;;3.60;99.90;;;;;;6242259;22;20065;-80
2022/01/25 11:59:59;;;;;;;73.32;30.30;;;3.60;99.90;;;;;;6240414;22;20106;-81
2022/01/25 12:02:46;;;;;;;70.47;28.67;;;3.60;99.90;;;;;;6239577;22;20454;-80
2022/01/25 12:05:24;;;;;;;75.90;31.40;;;3.60;99.90;;;;;;6241144;22;20023;-79
2022/01/25 12:08:12;;;;;;;79.88;30.60;;;3.60;99.90;;;;;;6250080;22;20020;-80
2022/01/25 12:10:40;;;;;;;69.18;28.88;;;3.60;99.90;;;;;;6217412;22;20011;-79
2022/01/25 12:13:25;;;;;;;72.50;30.80;;;3.60;99.90;;;;;;6243273;22;20035;-80
2022/01/25 12:16:28;;;;;;;68.85;30.05;;;3.60;99.90;;;;;;6217282;22;20568;-79
2022/01/25 12:18:57;;;;;;;;;;;3.60;99.90;;;;;;6244191;22;20106;-80
2022/01/25 12:21:44;;;;;;;72.00;30.50;;;3.80;99.90;;;;;;6215562;22;20000;-80
2022/01/25 12:24:17;;;;;;;73.30;29.45;;;3.60;99.90;;;;;;6245385;22;20023;-80
2022/01/25 12:27:24;;;;;;;70.10;29.20;;;3.60;99.90;;;;;;6219891;22;20025;-80
2022/01/25 12:30:00;;;;;;;67.90;29.48;;;3.60;99.90;;;;;;6217525;22;20034;-74
2022/01/25 12:32:34;;;;;;;70.85;28.83;;;3.60;99.90;;;;;;6215391;22;20024;-79
2022/01/25 12:35:10;;;;;;;66.65;29.52;;;3.60;99.90;;;;;;6240271;22;20016;-78
2022/01/25 12:37:46;;;;;;;72.60;29.13;;;3.60;99.90;;;;;;6215151;22;20015;-79
2022/01/25 12:40:28;;;;;;;73.80;29.95;;;3.40;99.90;;;;;;6215857;22;20022;-79
2022/01/25 12:43:04;;;;;;;69.68;29.50;;;3.60;99.90;;;;;;6241196;22;20572;-80
2022/01/25 12:45:43;;;;;;;66.78;29.60;;;3.60;99.90;;;;;;6238678;22;20066;-80
2022/01/25 12:48:12;;;;;;;73.35;29.02;;;3.60;99.90;;;;;;6215594;22;20076;-79
2022/01/25 12:50:41;;;;;;;72.28;29.42;;;3.60;99.90;;;;;;6239269;22;20022;-79
2022/01/25 12:53:11;;;;;;;65.95;28.73;;;3.60;99.90;;;;;;6190955;22;20012;-78
2022/01/25 12:55:40;;;;;;;71.63;27.63;;;3.60;99.90;;;;;;6238062;22;20047;-77
2022/01/25 12:58:07;;;;;;;71.50;29.05;;;3.60;99.90;;;;;;6238636;22;20055;-77
2022/01/25 13:01:02;;;;;;;64.25;28.25;;;3.60;99.90;;;;;;6234013;22;20023;-79
2022/01/25 13:03:34;;;;;;;70.25;27.70;;;3.60;99.90;;;;;;6217447;22;20012;-79
2022/01/25 13:06:26;;;;;;;65.40;26.73;;;3.60;99.90;;;;;;6238922;22;20085;-79
2022/01/25 13:12:26;;;;;;;69.07;28.73;;;3.50;99.90;;;;;;6243149;22;20051;-79
2022/01/25 13:17:03;;;;;;;70.50;29.02;;;3.50;99.90;;;;;;6241636;22;20016;-80
2022/01/25 13:19:34;;;;;;;65.72;27.40;;;3.50;99.90;;;;;;6218008;22;20030;-81
2022/01/25 13:22:11;;;;;;;68.88;29.20;;;3.50;99.90;;;;;;6245934;22;20090;-80
2022/01/25 13:24:50;;;;;;;69.63;30.02;;;3.50;99.90;;;;;;6217461;22;20034;-79
2022/01/25 13:27:17;;;;;;;64.80;28.17;;;3.50;99.90;;;;;;6216875;22;20467;-78
2022/01/25 13:32:46;;;;;;;69.28;28.25;;;3.50;99.90;;;;;;6242637;22;20023;-78
2022/01/25 13:35:35;;;;;;;62.85;28.25;;;3.50;99.90;;;;;;6217504;22;20035;-79
2022/01/25 13:38:06;;;;;;;69.97;28.80;;;3.50;99.90;;;;;;6216807;22;20462;-79
2022/01/25 13:45:42;;;;;;;67.72;28.55;;;3.50;99.90;;;;;;6241598;22;20023;-80
2022/01/25 13:46:18;;;;;;;67.82;27.48;;;3.50;99.90;;;;;;6258918;22;20027;-80
2022/01/25 13:48:46;;;;;;;65.65;28.42;;;3.50;99.90;;;;;;6219763;22;20031;-78
2022/01/25 13:51:15;;;;;;;64.93;27.13;;;3.40;99.90;;;;;;6219921;22;20027;-79
2022/01/25 13:53:42;;;;;;;68.20;27.63;;;3.40;99.90;;;;;;6217973;22;20024;-81
2022/01/25 13:56:14;;;;;;;66.53;27.38;;;3.40;99.90;;;;;;6218740;22;20015;-80
2022/01/25 13:58:43;;;;;;;66.00;27.58;;;3.40;99.90;;;;;;6216385;22;20047;-80
2022/01/25 14:01:10;;;;;;;66.55;27.83;;;3.40;99.90;;;;;;6219285;22;20090;-80
2022/01/25 14:03:39;;;;;;;72.03;29.30;;;3.40;99.90;;;;;;6216949;22;20020;-79
2022/01/25 14:06:23;;;;;;;64.55;26.30;;;3.40;99.90;;;;;;6216625;22;20024;-80
2022/01/25 14:08:51;;;;;;;64.18;26.08;;;3.40;99.90;;;;;;6214795;22;20016;-80
2022/01/25 14:22:56;;;;;;;63.70;27.75;;;3.30;99.90;;;;;;6229871;22;20019;-79
2022/01/25 14:25:32;;;;;;;69.28;27.83;;;3.30;99.90;;;;;;6211417;22;20529;-80
2022/01/25 14:28:02;;;;;;;67.18;28.48;;;3.40;99.90;;;;;;6236869;22;20018;-80
2022/01/25 14:30:35;;;;;;;69.50;28.73;;;3.40;99.90;;;;;;6242192;22;20016;-81
2022/01/25 14:33:10;;;;;;;82.90;32.00;;;3.30;99.90;;;;;;6213079;22;20114;-78
2022/01/25 14:35:46;;;;;;;77.22;29.98;;;3.30;99.90;;;;;;6241360;22;20019;-80
2022/01/25 14:38:33;;;;;;;67.13;29.10;;;3.30;99.90;;;;;;6241318;22;20155;-80
2022/01/25 14:41:04;;;;;;;79.32;31.13;;;3.30;99.90;;;;;;6239099;22;20019;-80
2022/01/25 14:43:37;;;;;;;69.22;28.02;;;3.40;99.90;;;;;;6245041;22;20016;-80
2022/01/25 14:46:13;;;;;;;69.05;28.90;;;3.30;99.90;;;;;;6221826;22;20019;-81
2022/01/25 14:48:43;;;;;;;66.95;28.60;;;3.30;99.90;;;;;;6255509;22;20055;-78
2022/01/25 14:51:11;;;;;;;67.15;29.02;;;3.30;99.90;;;;;;6232978;22;20090;-77
2022/01/25 14:53:41;;;;;;;64.50;27.88;;;3.30;99.90;;;;;;6254809;22;20026;-78